Time;durP1;ratioP1;P1;durP2;ratioP2;P2;SDS_P1;SDS_P2;PMS_P1;PMS_P2;Temp;Humidity;BMP_temperature;BMP_pressure;BME280_temperature;BME280_humidity;BME280_pressure;Samples;Min_cycle;Max_cycle;Signal;HPM_P1;HPM_P2
2023/01/26 00:00:29;;;;;;;5.47;2.97;;;;;;;-1.92;71.77;95212.56;4997875;28;20071;-84
2023/01/26 00:02:55;;;;;;;7.47;3.50;;;;;;;-1.90;71.71;95225.22;5014690;28;20407;-85
2023/01/26 00:05:20;;;;;;;7.22;3.53;;;;;;;-1.39;72.29;95296.81;5041786;28;20040;-84
2023/01/26 00:07:46;;;;;;;6.50;3.38;;;;;;;-1.33;71.76;95300.91;4997431;28;20477;-85
2023/01/26 00:10:11;;;;;;;6.07;3.38;;;;;;;-1.28;71.83;95303.31;4997683;28;20032;-84
2023/01/26 00:12:37;;;;;;;6.75;3.88;;;;;;;-1.24;71.04;95287.06;4997710;28;20067;-84
2023/01/26 00:15:03;;;;;;;5.93;3.08;;;;;;;-1.58;71.24;95283.75;5049186;28;20169;-85
2023/01/26 00:17:28;;;;;;;5.75;3.42;;;;;;;-1.39;70.86;95278.97;5033750;28;20021;-84
2023/01/26 00:19:57;;;;;;;6.13;3.17;;;;;;;-1.59;71.27;95263.41;5050401;28;20032;-85
2023/01/26 00:22:24;;;;;;;5.70;3.47;;;;;;;-2.00;71.47;95231.47;5029429;28;20033;-85
2023/01/26 00:24:49;;;;;;;7.82;3.83;;;;;;;-1.47;71.98;95303.84;5029314;28;20054;-84
2023/01/26 00:27:15;;;;;;;6.78;3.65;;;;;;;-1.95;70.93;95235.56;5013345;28;20061;-83
2023/01/26 00:29:40;;;;;;;5.90;3.83;;;;;;;-1.71;71.55;95269.69;5013577;28;20059;-85
2023/01/26 00:32:06;;;;;;;9.02;4.00;;;;;;;-1.55;71.94;95287.94;5039102;28;20537;-84
2023/01/26 00:34:31;;;;;;;7.07;3.33;;;;;;;-1.31;71.24;95272.81;5033596;28;20028;-84
2023/01/26 00:36:56;;;;;;;6.75;4.07;;;;;;;-1.38;71.43;95273.00;5017235;28;20479;-85
2023/01/26 00:39:22;;;;;;;8.75;4.28;;;;;;;-1.64;72.01;95273.75;5016778;28;20090;-84
2023/01/26 00:42:05;;;;;;;7.95;4.18;;;;;;;-1.51;72.15;95270.84;5037516;28;20029;-84
2023/01/26 00:44:31;;;;;;;7.45;4.25;;;;;;;-1.61;71.23;95217.59;5016217;28;20060;-84
2023/01/26 00:46:57;;;;;;;9.60;4.97;;;;;;;-1.50;70.58;95231.75;4997252;28;20491;-84
2023/01/26 00:49:22;;;;;;;6.93;4.07;;;;;;;-1.22;71.49;95272.56;5014693;28;20032;-84
2023/01/26 00:51:48;;;;;;;8.63;3.97;;;;;;;-1.55;70.67;95224.22;5051670;28;20045;-84
2023/01/26 00:54:13;;;;;;;8.32;4.97;;;;;;;-1.29;71.17;95265.97;5050093;28;20051;-85
2023/01/26 00:56:39;;;;;;;9.73;4.28;;;;;;;-1.59;71.16;95243.03;5033435;28;20048;-85
2023/01/26 00:59:05;;;;;;;7.68;4.20;;;;;;;-1.96;70.77;95180.38;5010058;28;20037;-85
2023/01/26 01:01:30;;;;;;;7.60;4.25;;;;;;;-1.59;71.14;95248.13;5031758;28;20083;-84
2023/01/26 01:03:56;;;;;;;9.40;4.05;;;;;;;-1.66;70.97;95226.25;5013455;28;20071;-83
2023/01/26 01:06:21;;;;;;;7.60;4.25;;;;;;;-1.95;70.98;95194.81;5023870;28;20447;-85
2023/01/26 01:08:47;;;;;;;6.70;4.03;;;;;;;-1.46;70.71;95249.44;5021622;28;20124;-84
2023/01/26 01:11:12;;;;;;;9.98;5.70;;;;;;;-1.45;71.43;95243.47;5013347;28;20040;-85
2023/01/26 01:13:38;;;;;;;7.43;4.38;;;;;;;-1.86;70.95;95183.53;5013452;28;20025;-84
2023/01/26 01:16:07;;;;;;;7.45;4.22;;;;;;;-1.49;70.17;95252.06;5013396;28;20033;-84
2023/01/26 01:18:32;;;;;;;6.80;4.15;;;;;;;-1.90;70.82;95169.19;5045718;28;20494;-85
2023/01/26 01:20:58;;;;;;;9.55;4.38;;;;;;;-1.27;70.23;95243.81;5016751;28;20060;-84
2023/01/26 01:23:26;;;;;;;8.27;4.28;;;;;;;-1.31;69.90;95242.22;5016558;28;20028;-84
2023/01/26 01:25:58;;;;;;;6.18;4.25;;;;;;;-1.19;69.63;95231.66;5031512;28;20057;-84
2023/01/26 01:28:23;;;;;;;7.80;4.40;;;;;;;-1.16;69.54;95236.69;4996743;28;20041;-84
2023/01/26 01:30:49;;;;;;;8.90;4.30;;;;;;;-1.49;69.33;95188.38;4997050;28;20033;-84
2023/01/26 01:33:14;;;;;;;6.57;4.35;;;;;;;-1.65;69.70;95152.31;5013609;28;20039;-84
2023/01/26 01:35:40;;;;;;;7.35;4.10;;;;;;;-1.53;68.78;95179.16;5037170;28;20457;-85
2023/01/26 01:38:05;;;;;;;7.00;4.25;;;;;;;-1.65;69.51;95174.41;5036863;28;20025;-84
2023/01/26 01:40:31;;;;;;;7.78;4.03;;;;;;;-1.53;69.19;95174.06;5036868;28;20071;-85
2023/01/26 01:42:56;;;;;;;7.18;3.60;;;;;;;-1.20;69.48;95229.97;5036771;28;20033;-84
2023/01/26 01:45:25;;;;;;;5.32;3.22;;;;;;;-1.01;67.75;95230.25;5040758;28;20076;-84
2023/01/26 01:47:54;;;;;;;6.85;3.92;;;;;;;-1.48;68.95;95202.75;5033020;28;20041;-84
2023/01/26 01:50:20;;;;;;;7.93;4.00;;;;;;;-1.15;68.77;95225.59;5000965;28;20022;-84
2023/01/26 01:52:45;;;;;;;7.43;3.50;;;;;;;-1.48;69.25;95212.13;5016772;28;20033;-84
2023/01/26 01:55:11;;;;;;;7.82;4.13;;;;;;;-1.16;69.07;95234.94;5051966;28;20040;-84
2023/01/26 01:57:46;;;;;;;8.80;4.20;;;;;;;-1.40;69.66;95223.75;5036436;28;20044;-83
2023/01/26 02:00:12;;;;;;;6.30;3.78;;;;;;;-1.45;69.34;95199.28;5037328;28;20095;-84
2023/01/26 02:02:38;;;;;;;7.95;4.00;;;;;;;-1.86;69.62;95160.59;5031752;28;20052;-83
2023/01/26 02:05:21;;;;;;;4.90;3.22;;;;;;;-1.60;69.65;95185.31;5033244;28;20064;-84
2023/01/26 02:07:46;;;;;;;8.77;3.92;;;;;;;-1.24;68.82;95210.56;5018155;28;20056;-84
2023/01/26 02:10:18;;;;;;;6.72;3.65;;;;;;;-1.15;68.92;95215.38;5032496;28;20504;-84
2023/01/26 02:12:43;;;;;;;6.47;3.60;;;;;;;-1.09;68.46;95207.53;5024934;28;20492;-83
2023/01/26 02:15:09;;;;;;;7.60;4.38;;;;;;;-1.51;68.52;95162.09;5016236;28;20049;-83
2023/01/26 02:17:35;;;;;;;7.78;3.78;;;;;;;-1.04;68.25;95204.84;5016368;28;20032;-84
2023/01/26 02:20:08;;;;;;;7.75;3.67;;;;;;;-1.31;68.21;95145.34;5032697;28;20029;-84
2023/01/26 02:22:33;;;;;;;5.68;3.58;;;;;;;-1.01;67.86;95184.34;5035559;28;20041;-84
2023/01/26 02:25:01;;;;;;;7.57;4.50;;;;;;;-1.13;68.29;95160.91;5053816;28;20051;-84
2023/01/26 02:27:27;;;;;;;16.58;7.75;;;;;;;-1.31;68.50;95117.31;5019578;28;20029;-84
2023/01/26 02:29:53;;;;;;;9.45;4.90;;;;;;;-1.36;67.63;95105.56;5015496;28;20045;-83
2023/01/26 02:32:18;;;;;;;7.30;4.03;;;;;;;-1.54;68.14;95131.59;5015837;28;20036;-83
2023/01/26 02:34:44;;;;;;;6.32;3.70;;;;;;;-1.33;68.53;95152.22;5015965;28;20030;-84
2023/01/26 02:37:13;;;;;;;8.15;3.72;;;;;;;-1.19;68.34;95173.84;4999592;28;20021;-82
2023/01/26 02:39:50;;;;;;;6.68;3.67;;;;;;;-1.08;69.03;95170.97;5024159;28;20029;-83
2023/01/26 02:44:59;;;;;;;4.95;3.50;;;;;;;-0.98;67.94;95176.59;5052478;28;20090;-84
2023/01/26 02:47:25;;;;;;;5.68;3.08;;;;;;;-1.61;68.14;95085.09;5034813;28;20036;-84
2023/01/26 02:49:50;;;;;;;6.07;3.50;;;;;;;-1.43;67.41;95101.53;5031618;28;20064;-84
2023/01/26 02:52:17;;;;;;;7.30;4.28;;;;;;;-1.48;68.17;95090.63;5032287;28;20029;-84
2023/01/26 02:55:44;;;;;;;6.90;3.95;;;;;;;-1.18;68.38;95136.44;5032308;28;20037;-84
2023/01/26 02:57:39;;;;;;;6.25;4.20;;;;;;;-1.26;68.91;95143.50;5025761;28;20423;-83
2023/01/26 03:00:06;;;;;;;5.95;3.35;;;;;;;-1.83;69.10;95076.47;5035216;28;20025;-84
2023/01/26 03:02:32;;;;;;;6.55;3.80;;;;;;;-1.72;69.63;95105.00;5052056;28;20071;-84
2023/01/26 03:04:57;;;;;;;5.97;3.90;;;;;;;-1.61;69.41;95147.97;5035289;28;20052;-84
2023/01/26 03:07:23;;;;;;;7.00;3.72;;;;;;;-1.81;68.91;95070.44;5011402;28;20047;-84
2023/01/26 03:09:48;;;;;;;6.05;4.07;;;;;;;-1.54;69.02;95141.81;5035093;28;20044;-83
2023/01/26 03:12:14;;;;;;;7.03;3.40;;;;;;;-1.67;69.69;95110.78;5035043;28;20055;-84
2023/01/26 03:14:40;;;;;;;5.55;3.80;;;;;;;-1.59;69.47;95141.09;5015683;28;20025;-84
2023/01/26 03:17:05;;;;;;;6.03;3.58;;;;;;;-1.86;69.49;95074.00;5030376;28;20511;-83
2023/01/26 03:27:45;;;;;;;6.45;3.38;;;;;;;-1.75;69.54;95063.50;5017446;28;20416;-83
2023/01/26 03:30:10;;;;;;;7.97;4.25;;;;;;;-1.34;69.38;95113.13;5014751;28;20071;-83
2023/01/26 03:32:36;;;;;;;6.05;4.18;;;;;;;-1.61;69.20;95067.28;5014447;28;20447;-82
2023/01/26 03:35:02;;;;;;;5.57;3.58;;;;;;;-1.34;68.74;95100.41;5014845;28;20112;-84
2023/01/26 03:37:33;;;;;;;5.78;3.63;;;;;;;-1.21;68.54;95105.94;5031256;28;20032;-83
2023/01/26 03:56:23;;;;;;;5.50;3.55;;;;;;;-1.52;67.90;95058.50;5031142;28;20090;-83
2023/01/26 03:58:57;;;;;;;6.57;4.05;;;;;;;-1.88;68.14;94989.19;5014150;28;20034;-84
2023/01/26 04:01:26;;;;;;;5.97;3.53;;;;;;;-1.36;67.98;95067.31;5031004;28;20080;-84
2023/01/26 04:09:22;;;;;;;5.38;3.45;;;;;;;-1.25;67.98;95063.59;5050767;28;20517;-84
2023/01/26 04:11:47;;;;;;;5.28;3.55;;;;;;;-1.58;68.21;95005.19;5017514;28;20037;-83
2023/01/26 04:22:25;;;;;;;6.10;3.47;;;;;;;-1.06;67.33;95056.16;5050437;28;20076;-84
2023/01/26 04:24:51;;;;;;;6.22;3.33;;;;;;;-1.16;67.80;95042.91;5033550;28;20076;-84
2023/01/26 04:27:16;;;;;;;5.43;3.40;;;;;;;-1.62;68.52;95054.56;5033284;28;20074;-84
2023/01/26 04:29:43;;;;;;;5.60;3.30;;;;;;;-1.85;68.17;94979.72;5033580;28;20131;-84
2023/01/26 04:32:08;;;;;;;6.30;3.25;;;;;;;-1.62;68.24;95039.28;5050358;28;20044;-85
2023/01/26 04:34:34;;;;;;;5.13;3.13;;;;;;;-1.91;68.77;94982.47;5033269;28;20075;-84
2023/01/26 04:36:59;;;;;;;5.60;3.35;;;;;;;-1.52;68.13;95032.19;5050466;28;20461;-84
2023/01/26 04:39:25;;;;;;;5.53;2.92;;;;;;;-1.74;67.99;94976.00;5049920;28;20025;-84
2023/01/26 04:41:50;;;;;;;4.95;2.92;;;;;;;-1.43;67.35;95024.25;5049874;28;20029;-85
2023/01/26 04:44:16;;;;;;;5.45;3.22;;;;;;;-1.13;67.04;95047.88;5050041;28;20035;-85
2023/01/26 04:46:41;;;;;;;6.55;3.28;;;;;;;-1.20;67.50;95041.31;5033648;28;20036;-84
2023/01/26 04:49:07;;;;;;;5.32;3.30;;;;;;;-1.43;66.92;95003.84;5033087;28;20045;-85
2023/01/26 04:51:32;;;;;;;6.28;3.45;;;;;;;-1.36;67.35;95024.00;5017133;28;20182;-84
2023/01/26 04:53:58;;;;;;;4.90;2.95;;;;;;;-1.40;67.91;95024.97;5049766;28;20041;-84
2023/01/26 04:56:28;;;;;;;5.50;3.40;;;;;;;-1.54;67.81;94999.09;5016974;28;20036;-85
2023/01/26 04:58:54;;;;;;;5.73;3.37;;;;;;;-1.56;67.54;94998.34;5049797;28;20044;-85
2023/01/26 05:01:20;;;;;;;5.07;3.05;;;;;;;-1.39;67.35;95006.25;5016993;28;20479;-85
2023/01/26 05:03:45;;;;;;;6.18;3.50;;;;;;;-1.21;66.81;95019.25;5033041;28;20045;-84
2023/01/26 05:06:11;;;;;;;5.35;3.45;;;;;;;-1.63;67.07;94961.19;5040762;28;20088;-84
2023/01/26 05:08:37;;;;;;;4.50;3.03;;;;;;;-1.44;67.05;94971.63;5029938;28;20067;-84
2023/01/26 05:11:02;;;;;;;5.95;3.20;;;;;;;-1.40;67.12;94991.84;5018040;28;20033;-85
2023/01/26 05:13:28;;;;;;;5.78;2.95;;;;;;;-1.62;67.25;94960.31;5033508;28;20033;-85
2023/01/26 05:15:53;;;;;;;4.82;2.97;;;;;;;-1.15;66.73;95034.34;5019005;28;20029;-85
2023/01/26 05:18:19;;;;;;;5.45;3.25;;;;;;;-1.33;67.09;94994.19;5073086;28;20032;-84
2023/01/26 05:20:44;;;;;;;5.13;3.40;;;;;;;-1.37;66.72;94970.50;5073351;28;20021;-85
2023/01/26 05:23:10;;;;;;;6.07;3.28;;;;;;;-1.17;66.39;95023.38;5073802;28;20483;-85
2023/01/26 05:25:35;;;;;;;4.53;2.95;;;;;;;-1.09;67.48;95034.13;5040382;28;20071;-85
2023/01/26 05:28:01;;;;;;;5.00;3.03;;;;;;;-1.19;66.92;95007.31;5054199;28;20122;-85
2023/01/26 05:30:26;;;;;;;5.55;3.40;;;;;;;-1.25;66.73;94971.84;5037005;28;20025;-83
2023/01/26 05:32:52;;;;;;;5.85;3.30;;;;;;;-0.99;66.77;95010.00;5020570;28;20558;-85
2023/01/26 05:35:17;;;;;;;18.73;8.13;;;;;;;-0.93;66.29;95019.97;5038022;28;20033;-84
2023/01/26 05:37:44;;;;;;;7.47;3.97;;;;;;;-0.87;66.01;95024.03;5020215;28;20032;-85
2023/01/26 05:40:10;;;;;;;7.15;3.63;;;;;;;-0.81;65.78;95022.97;5020519;28;20480;-85
2023/01/26 05:42:36;;;;;;;6.38;3.60;;;;;;;-1.42;66.42;94957.94;5036908;28;20110;-85
2023/01/26 05:45:01;;;;;;;5.22;3.60;;;;;;;-0.90;66.44;95024.97;5035356;28;20069;-85
2023/01/26 05:47:26;;;;;;;5.57;3.53;;;;;;;-0.71;66.33;95029.44;5005163;28;20044;-85
2023/01/26 05:49:52;;;;;;;6.93;3.70;;;;;;;-0.68;65.79;95019.13;5016016;28;20499;-84
2023/01/26 05:52:18;;;;;;;6.60;4.15;;;;;;;-0.95;65.84;95011.56;5039738;28;20040;-85
2023/01/26 05:54:44;;;;;;;6.75;4.30;;;;;;;-1.04;66.29;94983.00;5033686;28;20106;-85
2023/01/26 05:57:10;;;;;;;6.03;3.70;;;;;;;-0.64;65.77;95025.78;5016647;28;20487;-84
2023/01/26 05:59:36;;;;;;;7.43;4.65;;;;;;;-0.78;65.91;95010.97;5044007;28;20483;-85
2023/01/26 06:02:01;;;;;;;6.75;4.57;;;;;;;-1.09;66.21;94944.06;5000587;28;20052;-85
2023/01/26 06:04:27;;;;;;;7.55;4.53;;;;;;;-1.17;66.14;94936.69;5014743;28;20507;-83
2023/01/26 06:06:53;;;;;;;9.60;5.60;;;;;;;-0.65;66.51;95013.91;5016704;28;20123;-84
2023/01/26 06:09:19;;;;;;;7.40;4.60;;;;;;;-0.64;65.20;95015.59;5023468;28;20036;-83
2023/01/26 06:11:45;;;;;;;8.20;4.63;;;;;;;-1.08;65.28;94972.06;5046205;28;20506;-84
2023/01/26 06:14:10;;;;;;;9.27;5.22;;;;;;;-0.84;65.77;95020.53;5047595;28;20098;-84
2023/01/26 06:16:36;;;;;;;7.50;5.05;;;;;;;-0.80;66.45;95017.84;5030373;28;20491;-85
2023/01/26 06:19:01;;;;;;;6.75;4.32;;;;;;;-0.76;66.10;95018.56;5031278;28;20059;-84
2023/01/26 06:21:27;;;;;;;8.80;5.03;;;;;;;-0.65;65.72;95001.16;5032650;28;20029;-84
2023/01/26 06:23:53;;;;;;;8.27;5.07;;;;;;;-0.55;65.38;95005.03;5011689;28;20407;-85
2023/01/26 06:26:18;;;;;;;8.07;5.05;;;;;;;-0.46;65.18;95008.97;5031481;28;20052;-84
2023/01/26 06:28:44;;;;;;;9.15;5.47;;;;;;;-0.67;66.05;95008.00;5014347;28;20584;-85
2023/01/26 06:31:09;;;;;;;7.63;4.90;;;;;;;-0.96;65.76;94947.84;5030279;28;20457;-85
2023/01/26 06:33:36;;;;;;;9.63;5.18;;;;;;;-0.54;65.26;94993.09;5031189;28;20021;-85
2023/01/26 06:36:05;;;;;;;9.50;5.15;;;;;;;-0.50;65.40;94999.78;5031780;28;20032;-84
2023/01/26 06:38:31;;;;;;;10.18;5.57;;;;;;;-1.06;66.31;94918.44;5014575;28;20487;-85
2023/01/26 06:41:05;;;;;;;9.68;5.05;;;;;;;-0.90;66.49;95001.19;5026646;28;20037;-85
2023/01/26 06:43:34;;;;;;;7.80;4.95;;;;;;;-0.71;66.47;94999.66;5014237;28;20114;-85
2023/01/26 06:46:00;;;;;;;10.45;5.88;;;;;;;-0.73;66.45;94995.47;5011995;28;20403;-84
2023/01/26 06:48:26;;;;;;;9.57;5.10;;;;;;;-0.50;65.95;94997.22;5029187;28;20349;-85
2023/01/26 06:50:51;;;;;;;10.60;5.82;;;;;;;-0.94;66.25;94938.44;5024874;28;20029;-85
2023/01/26 06:53:37;;;;;;;34.33;22.45;;;;;;;-0.38;66.44;94994.22;5013538;28;20037;-84
2023/01/26 06:56:02;;;;;;;27.17;21.67;;;;;;;-0.39;65.59;94984.03;5031159;28;20404;-83
2023/01/26 06:58:31;;;;;;;10.55;6.50;;;;;;;-0.72;66.65;94948.69;5012057;28;20044;-84
2023/01/26 07:00:56;;;;;;;10.02;6.20;;;;;;;-0.60;66.47;94965.25;5029086;28;20045;-84
2023/01/26 07:03:22;;;;;;;8.43;5.63;;;;;;;-0.65;65.63;94937.34;5012870;28;20126;-84
2023/01/26 07:05:47;;;;;;;9.88;5.47;;;;;;;-0.43;65.42;94972.28;5028752;28;20166;-84
2023/01/26 07:08:13;;;;;;;14.18;8.13;;;;;;;-0.31;65.86;94987.97;5027765;28;20032;-83
2023/01/26 07:10:39;;;;;;;11.70;7.05;;;;;;;-0.22;65.62;94979.16;5047569;28;20514;-81
2023/01/26 07:13:04;;;;;;;10.38;5.80;;;;;;;-0.59;65.76;94983.06;5007763;28;20083;-84
2023/01/26 07:15:30;;;;;;;8.00;5.45;;;;;;;-0.50;65.53;94990.41;5044851;28;20064;-83
2023/01/26 07:17:56;;;;;;;16.92;8.27;;;;;;;-0.49;65.98;94968.25;5012476;28;20021;-84
2023/01/26 07:20:22;;;;;;;11.98;7.40;;;;;;;-0.72;66.04;94912.97;5014468;28;20115;-82
2023/01/26 07:22:48;;;;;;;15.10;8.95;;;;;;;-0.47;65.76;94918.81;5028896;28;20552;-84
2023/01/26 07:25:14;;;;;;;10.50;6.20;;;;;;;-0.34;65.25;94952.34;5026786;28;20427;-84
2023/01/26 07:27:40;;;;;;;9.13;5.43;;;;;;;-0.51;65.12;94930.00;5028605;28;20039;-82
2023/01/26 07:30:06;;;;;;;10.93;6.53;;;;;;;-0.27;65.03;94968.28;5025906;28;20372;-83
2023/01/26 07:32:31;;;;;;;10.15;5.60;;;;;;;-0.22;65.49;94979.16;5048529;28;20041;-83
2023/01/26 07:34:57;;;;;;;15.40;7.70;;;;;;;-0.17;66.02;94959.34;5029619;28;20110;-82
2023/01/26 07:37:26;;;;;;;14.60;7.43;;;;;;;-0.18;66.42;94961.97;5014268;28;20048;-82
2023/01/26 07:39:52;;;;;;;12.30;6.60;;;;;;;-0.40;65.70;94921.13;5029507;28;20120;-82
2023/01/26 07:42:17;;;;;;;20.90;8.85;;;;;;;-0.26;65.95;94957.16;5030562;28;20113;-83
2023/01/26 07:44:43;;;;;;;14.50;7.72;;;;;;;-0.07;65.90;94958.13;5021806;28;20148;-83
2023/01/26 07:47:08;;;;;;;19.08;8.25;;;;;;;-0.10;64.87;94949.75;5010153;28;20029;-82
2023/01/26 07:49:34;;;;;;;16.55;7.72;;;;;;;-0.29;64.82;94912.16;5009953;28;20112;-83
2023/01/26 07:51:59;;;;;;;16.38;7.68;;;;;;;0.02;65.40;94951.81;5043339;28;20078;-82
2023/01/26 07:54:25;;;;;;;17.85;8.00;;;;;;;-0.01;64.87;94955.31;5028686;28;20051;-82
2023/01/26 07:56:51;;;;;;;23.60;10.77;;;;;;;-0.19;65.49;94947.56;5029543;28;20124;-82
2023/01/26 07:59:17;;;;;;;34.08;12.30;;;;;;;-0.04;65.84;94965.66;5029789;28;20037;-82
2023/01/26 08:01:42;;;;;;;24.73;11.77;;;;;;;-0.44;65.29;94873.66;5012569;28;20055;-83
2023/01/26 08:04:08;;;;;;;18.05;9.65;;;;;;;0.12;65.17;94942.91;5044934;28;20031;-82
2023/01/26 08:06:33;;;;;;;13.85;7.05;;;;;;;-0.10;65.07;94929.31;5028618;28;20403;-82
2023/01/26 08:08:59;;;;;;;12.13;7.30;;;;;;;-0.16;65.36;94886.97;5028854;28;20049;-82
2023/01/26 08:11:25;;;;;;;13.55;7.50;;;;;;;0.10;64.98;94931.06;5043307;28;20017;-83
2023/01/26 08:13:51;;;;;;;14.30;8.38;;;;;;;0.28;64.55;94932.03;5027337;28;20078;-83
2023/01/26 08:16:17;;;;;;;10.50;6.55;;;;;;;0.28;64.25;94940.56;5045617;28;20120;-82
2023/01/26 08:18:43;;;;;;;8.65;5.07;;;;;;;0.18;64.89;94913.72;5012390;28;20079;-82
2023/01/26 08:21:10;;;;;;;9.50;6.30;;;;;;;0.41;64.45;94930.66;5011988;28;20106;-82
2023/01/26 08:23:35;;;;;;;5.82;4.22;;;;;;;0.01;63.75;94868.41;5025854;28;20051;-84
2023/01/26 08:26:02;;;;;;;9.30;5.15;;;;;;;0.26;62.82;94900.63;5013865;28;20500;-84
2023/01/26 08:28:28;;;;;;;44.58;17.90;;;;;;;-0.24;62.92;94827.72;5045312;28;20063;-82
2023/01/26 08:30:53;;;;;;;21.30;10.27;;;;;;;0.27;63.40;94912.50;5042969;28;20478;-82
2023/01/26 08:33:19;;;;;;;19.08;9.18;;;;;;;0.23;63.68;94883.69;5011424;28;20017;-82
2023/01/26 08:35:44;;;;;;;8.38;4.78;;;;;;;0.27;63.54;94895.44;5013476;28;20033;-82
2023/01/26 08:38:09;;;;;;;7.88;5.65;;;;;;;0.48;63.38;94926.13;5028798;28;20098;-83
2023/01/26 08:40:35;;;;;;;5.82;3.88;;;;;;;-0.04;62.56;94878.81;5043767;28;20056;-82
2023/01/26 08:43:01;;;;;;;5.43;3.58;;;;;;;0.08;63.85;94912.41;5026379;28;20113;-82
2023/01/26 08:45:27;;;;;;;6.10;3.22;;;;;;;0.00;64.18;94925.53;5044988;28;20522;-82
2023/01/26 08:47:52;;;;;;;5.28;3.20;;;;;;;-0.05;63.21;94889.94;5042944;28;20119;-82
2023/01/26 08:50:18;;;;;;;5.13;3.47;;;;;;;-0.14;63.44;94867.31;5029049;28;20025;-82
2023/01/26 08:52:44;;;;;;;5.45;3.15;;;;;;;-0.17;63.08;94869.97;5011921;28;20479;-83
2023/01/26 08:55:09;;;;;;;4.47;3.28;;;;;;;-0.15;63.52;94855.44;5027873;28;20060;-81
2023/01/26 08:57:35;;;;;;;4.85;3.22;;;;;;;-0.42;63.49;94866.75;5028939;28;20044;-83
2023/01/26 09:00:00;;;;;;;5.45;3.30;;;;;;;-0.10;63.49;94912.25;5045086;28;20506;-81
2023/01/26 09:02:26;;;;;;;4.03;2.70;;;;;;;-0.07;63.79;94918.97;5011901;28;20033;-83
2023/01/26 09:04:51;;;;;;;4.75;2.95;;;;;;;-0.35;63.58;94871.56;5044650;28;20115;-83
2023/01/26 09:07:17;;;;;;;4.90;3.38;;;;;;;0.13;63.99;94931.78;5045866;28;20449;-83
2023/01/26 09:09:43;;;;;;;12.95;6.32;;;;;;;-0.41;64.60;94846.28;5033009;28;20502;-82
2023/01/26 09:12:09;;;;;;;7.22;4.82;;;;;;;0.16;64.88;94918.03;5050403;28;20039;-83
2023/01/26 09:14:34;;;;;;;7.15;5.35;;;;;;;0.31;64.00;94899.56;5032879;28;20029;-83
2023/01/26 09:17:00;;;;;;;7.72;4.80;;;;;;;0.21;63.14;94896.53;5032361;28;20479;-83
2023/01/26 09:19:25;;;;;;;6.50;3.88;;;;;;;0.26;63.28;94900.63;5016024;28;20116;-83
2023/01/26 09:21:52;;;;;;;6.65;4.40;;;;;;;0.37;63.42;94898.47;5032615;28;20032;-83
2023/01/26 09:24:18;;;;;;;4.28;3.00;;;;;;;-0.07;63.15;94830.41;5016318;28;20060;-82
2023/01/26 09:26:44;;;;;;;5.07;3.30;;;;;;;-0.09;63.55;94860.28;5049090;28;20506;-83
2023/01/26 09:29:09;;;;;;;5.03;3.15;;;;;;;0.32;64.27;94890.97;5048922;28;20048;-82
2023/01/26 09:31:35;;;;;;;7.47;4.28;;;;;;;0.26;63.73;94878.47;5049241;28;20032;-83
2023/01/26 09:34:00;;;;;;;5.18;3.72;;;;;;;0.06;64.01;94868.25;5015669;28;20041;-83
2023/01/26 09:36:26;;;;;;;11.13;9.90;;;;;;;-0.01;64.53;94842.94;5048879;28;20033;-82
2023/01/26 09:38:52;;;;;;;9.63;7.25;;;;;;;0.33;63.75;94877.28;5049124;28;20071;-83
2023/01/26 09:41:50;;;;;;;4.68;3.10;;;;;;;0.25;63.64;94886.19;5032755;28;20483;-82
2023/01/26 09:44:22;;;;;;;4.57;3.17;;;;;;;0.22;64.16;94892.25;5048735;28;20045;-82
2023/01/26 09:47:16;;;;;;;;;;;;;;;0.38;64.38;94889.88;5022375;28;20451;-82
2023/01/26 09:50:01;;;;;;;9.70;5.63;;;;;;;0.41;63.72;94875.25;5024822;28;19921;-83
2023/01/26 09:52:36;;;;;;;4.43;3.22;;;;;;;0.60;63.67;94870.19;5031452;28;20115;-83
2023/01/26 09:55:05;;;;;;;4.82;3.33;;;;;;;0.60;62.89;94849.72;5016325;28;20029;-82
2023/01/26 09:57:34;;;;;;;5.07;2.72;;;;;;;0.34;63.29;94858.53;5051119;28;20087;-83
2023/01/26 10:00:08;;;;;;;4.20;2.50;;;;;;;0.45;63.36;94860.63;5052689;28;20037;-83
2023/01/26 10:02:45;;;;;;;3.47;2.42;;;;;;;0.10;62.77;94796.50;5020576;28;20044;-83
2023/01/26 10:05:15;;;;;;;5.35;2.70;;;;;;;0.71;62.26;94861.22;5036731;28;20033;-82
2023/01/26 10:07:44;;;;;;;19.13;7.00;;;;;;;0.58;62.32;94830.25;5036368;28;20052;-83
2023/01/26 10:10:14;;;;;;;15.93;5.55;;;;;;;0.50;62.00;94784.56;5052377;28;20033;-82
2023/01/26 10:12:40;;;;;;;4.95;2.95;;;;;;;0.84;61.70;94857.25;5023243;28;20037;-82
2023/01/26 10:15:29;;;;;;;5.30;2.80;;;;;;;0.66;62.60;94859.69;5016164;28;20514;-83
2023/01/26 10:17:55;;;;;;;3.63;2.38;;;;;;;0.64;62.86;94847.88;5033203;28;20382;-83
2023/01/26 10:20:40;;;;;;;5.03;3.83;;;;;;;0.56;63.06;94842.28;5016006;28;20171;-83
2023/01/26 10:23:18;;;;;;;4.38;2.40;;;;;;;0.48;62.98;94829.00;5032334;28;20040;-83
2023/01/26 10:25:45;;;;;;;3.00;2.00;;;;;;;-0.02;62.96;94779.97;4999643;28;20058;-82
2023/01/26 10:28:18;;;;;;;4.75;2.83;;;;;;;0.23;63.87;94814.72;5016182;28;20041;-83
2023/01/26 10:30:44;;;;;;;4.47;2.88;;;;;;;-0.25;64.44;94754.59;5032110;28;20041;-83
2023/01/26 10:33:19;;;;;;;4.30;2.58;;;;;;;0.25;64.19;94806.97;5014564;28;20060;-83
2023/01/26 10:35:45;;;;;;;8.18;5.35;;;;;;;0.22;65.01;94775.56;5043981;28;20068;-83
2023/01/26 10:38:36;;;;;;;4.45;2.83;;;;;;;0.25;64.01;94795.00;4999767;28;20087;-83
2023/01/26 10:41:17;;;;;;;7.93;3.97;;;;;;;0.32;63.89;94783.66;5033529;28;20124;-83
2023/01/26 10:44:00;;;;;;;5.00;2.60;;;;;;;0.55;64.14;94763.91;5037783;28;20059;-83
2023/01/26 10:46:35;;;;;;;4.20;2.80;;;;;;;0.61;63.52;94768.75;5014065;28;20036;-82
2023/01/26 10:49:21;;;;;;;7.53;5.07;;;;;;;0.60;63.33;94764.53;5048372;28;20069;-83
2023/01/26 10:52:24;;;;;;;14.30;11.93;;;;;;;0.24;63.73;94695.44;5027696;28;20041;-82
2023/01/26 10:55:19;;;;;;;6.25;3.75;;;;;;;0.71;62.95;94748.72;5029886;28;20377;-83
2023/01/26 10:57:44;;;;;;;15.18;7.90;;;;;;;0.71;63.00;94721.41;5048037;28;20423;-83
2023/01/26 11:00:32;;;;;;;13.15;6.38;;;;;;;0.83;62.77;94736.19;5044236;28;20036;-83
2023/01/26 11:03:12;;;;;;;5.47;3.53;;;;;;;0.79;63.06;94724.44;5039715;28;20028;-81
2023/01/26 11:05:38;;;;;;;11.10;7.60;;;;;;;0.82;62.61;94716.63;5042883;28;20399;-83
2023/01/26 11:08:27;;;;;;;8.35;5.25;;;;;;;0.94;62.72;94706.72;5026883;28;20311;-83
2023/01/26 11:10:53;;;;;;;19.98;11.55;;;;;;;0.57;62.33;94655.56;5028663;28;20423;-83
2023/01/26 11:13:19;;;;;;;10.25;6.68;;;;;;;0.90;62.34;94683.03;5027003;28;20167;-82
2023/01/26 11:15:47;;;;;;;6.47;3.63;;;;;;;1.22;61.42;94717.31;5026381;28;20032;-82
2023/01/26 11:18:31;;;;;;;6.47;4.00;;;;;;;1.23;61.54;94707.91;5008351;28;20063;-83
2023/01/26 11:21:04;;;;;;;7.85;4.20;;;;;;;1.14;62.06;94698.94;5039351;28;20119;-83
2023/01/26 11:23:42;;;;;;;5.97;3.47;;;;;;;1.07;62.02;94690.72;5044152;28;20108;-83
2023/01/26 11:26:45;;;;;;;3.40;2.47;;;;;;;0.85;61.73;94685.78;5041109;28;20048;-83
2023/01/26 11:29:52;;;;;;;3.83;2.10;;;;;;;1.10;62.03;94675.22;5042720;28;20083;-83
2023/01/26 11:32:45;;;;;;;4.25;2.55;;;;;;;1.20;61.78;94670.50;5042739;28;20055;-83
2023/01/26 11:35:14;;;;;;;3.05;1.88;;;;;;;1.23;61.54;94665.25;5018597;28;20036;-83
2023/01/26 11:37:42;;;;;;;3.50;2.30;;;;;;;1.29;61.33;94666.66;5043588;28;20029;-83
2023/01/26 11:40:31;;;;;;;3.50;2.33;;;;;;;1.18;61.67;94661.25;5038234;28;20040;-83
2023/01/26 11:43:12;;;;;;;4.65;2.85;;;;;;;1.02;61.57;94626.16;5031468;28;20037;-81
2023/01/26 11:45:47;;;;;;;9.82;4.68;;;;;;;1.24;61.88;94656.66;5014851;28;20537;-82
2023/01/26 11:48:20;;;;;;;4.00;2.70;;;;;;;1.09;61.23;94640.31;5031318;28;20033;-83
2023/01/26 11:51:20;;;;;;;10.48;4.65;;;;;;;1.17;61.93;94650.19;5019886;28;20036;-83
2023/01/26 11:53:51;;;;;;;6.95;4.57;;;;;;;1.26;62.21;94654.84;5040759;28;20033;-83
2023/01/26 11:56:25;;;;;;;4.10;2.63;;;;;;;1.05;61.97;94659.25;5033957;28;20127;-81
2023/01/26 11:59:01;;;;;;;4.55;2.75;;;;;;;1.01;62.06;94649.28;5052015;28;20418;-83
2023/01/26 12:01:27;;;;;;;4.55;3.13;;;;;;;1.09;62.77;94660.78;5032760;28;20487;-81
2023/01/26 12:03:54;;;;;;;4.78;3.10;;;;;;;1.10;63.11;94649.63;5036648;28;20114;-81
2023/01/26 12:06:41;;;;;;;4.63;3.20;;;;;;;0.88;62.63;94614.03;5013521;28;20021;-80
2023/01/26 12:09:21;;;;;;;4.60;3.45;;;;;;;0.98;62.27;94611.06;5030797;28;20033;-82
2023/01/26 12:11:56;;;;;;;6.82;3.88;;;;;;;0.92;63.18;94645.44;5015441;28;20029;-82
2023/01/26 12:14:27;;;;;;;6.95;3.95;;;;;;;0.91;63.47;94646.31;5050562;28;20562;-80
2023/01/26 12:17:08;;;;;;;;;;;;;;;1.10;62.83;94634.28;5051985;28;20095;-82
2023/01/26 12:20:05;;;;;;;19.67;15.63;;;;;;;1.02;63.72;94638.13;5044288;28;20426;-85
2023/01/26 12:22:38;;;;;;;10.10;7.65;;;;;;;0.87;63.71;94603.88;5019516;28;20519;-82